LNI714 WIII-WIOO
Flight info
| Callsign | LNI714 |
|---|---|
| Flight time | 1h 11m |
| Altitude | 37000 |
| Route | ABASA W14 OLVES |
| Aircraft | B738/M-SCB1D1A1R2/LB1 |
Departure
| Time | 2026-04-23 09:55 |
|---|---|
| Airport | Soekarno-Hatta International Airport (WIII) |
Arrival
| Time | 2026-04-23 11:06 |
|---|---|
| Airport | Supadio International Airport (WIOO) |
| Time | Latitude | Longitude | Altitude | Speed | Heading |
|---|---|---|---|---|---|
| 2026-04-23 09:39 | -6.12866 | 106.66034 | 37 ft | 0 kts | 254° |
| 2026-04-23 09:45 | -6.12866 | 106.66037 | 37 ft | 3 kts | 253° |
| 2026-04-23 09:45 | -6.12857 | 106.66061 | 35 ft | 4 kts | 244° |
| 2026-04-23 09:45 | -6.12843 | 106.66084 | 37 ft | 4 kts | 224° |
| 2026-04-23 09:46 | -6.12823 | 106.66096 | 35 ft | 3 kts | 175° |
| 2026-04-23 09:46 | -6.12819 | 106.66096 | 37 ft | 0 kts | 171° |
| 2026-04-23 09:49 | -6.12832 | 106.66098 | 37 ft | 5 kts | 171° |
| 2026-04-23 09:49 | -6.12884 | 106.66104 | 37 ft | 10 kts | 176° |
| 2026-04-23 09:49 | -6.12969 | 106.66095 | 37 ft | 13 kts | 189° |
| 2026-04-23 09:49 | -6.13036 | 106.66030 | 37 ft | 15 kts | 241° |
| 2026-04-23 09:50 | -6.13298 | 106.65821 | 37 ft | 20 kts | 185° |
| 2026-04-23 09:50 | -6.13321 | 106.65822 | 37 ft | 3 kts | 165° |
| 2026-04-23 09:51 | -6.13357 | 106.65836 | 37 ft | 9 kts | 158° |
| 2026-04-23 09:51 | -6.13442 | 106.65858 | 37 ft | 16 kts | 190° |
| 2026-04-23 09:51 | -6.13505 | 106.65753 | 36 ft | 22 kts | 248° |
| 2026-04-23 09:51 | -6.13569 | 106.65595 | 37 ft | 27 kts | 248° |
| 2026-04-23 09:52 | -6.13645 | 106.65406 | 38 ft | 30 kts | 248° |
| 2026-04-23 09:52 | -6.13724 | 106.65206 | 38 ft | 31 kts | 248° |
| 2026-04-23 09:52 | -6.13805 | 106.65003 | 38 ft | 31 kts | 248° |
| 2026-04-23 09:52 | -6.13893 | 106.64801 | 38 ft | 32 kts | 252° |
| 2026-04-23 09:53 | -6.13969 | 106.64590 | 38 ft | 32 kts | 248° |
| 2026-04-23 09:53 | -6.14051 | 106.64383 | 38 ft | 26 kts | 249° |
| 2026-04-23 09:53 | -6.14177 | 106.64320 | 37 ft | 24 kts | 139° |
| 2026-04-23 09:53 | -6.14228 | 106.64397 | 39 ft | 19 kts | 112° |
| 2026-04-23 09:54 | -6.14209 | 106.64477 | 39 ft | 3 kts | 68° |
| 2026-04-23 09:54 | -6.14169 | 106.64577 | 37 ft | 48 kts | 68° |
| 2026-04-23 09:54 | -6.13943 | 106.65145 | 38 ft | 125 kts | 68° |
| 2026-04-23 09:54 | -6.13556 | 106.66119 | 250 ft | 166 kts | 68° |
| 2026-04-23 09:55 | -6.13263 | 106.66882 | 647 ft | 179 kts | 68° |
| 2026-04-23 09:55 | -6.12807 | 106.68080 | 1330 ft | 192 kts | 69° |
| 2026-04-23 09:55 | -6.12309 | 106.69371 | 1948 ft | 204 kts | 67° |
| 2026-04-23 09:55 | -6.11737 | 106.70763 | 2326 ft | 226 kts | 67° |
| 2026-04-23 09:56 | -6.11112 | 106.72284 | 2714 ft | 246 kts | 67° |
| 2026-04-23 09:56 | -6.10533 | 106.73977 | 3183 ft | 264 kts | 82° |
| 2026-04-23 09:56 | -6.10453 | 106.75831 | 4209 ft | 266 kts | 88° |
| 2026-04-23 09:56 | -6.10433 | 106.77707 | 5140 ft | 271 kts | 89° |
| 2026-04-23 09:57 | -6.10401 | 106.79589 | 6034 ft | 275 kts | 88° |
| 2026-04-23 09:57 | -6.10361 | 106.81527 | 6684 ft | 279 kts | 89° |
| 2026-04-23 09:57 | -6.10315 | 106.83496 | 7253 ft | 284 kts | 88° |
| 2026-04-23 09:57 | -6.10267 | 106.85495 | 8172 ft | 288 kts | 88° |
| 2026-04-23 09:58 | -6.10218 | 106.87514 | 9121 ft | 291 kts | 88° |
| 2026-04-23 09:58 | -6.10181 | 106.88994 | 9772 ft | 295 kts | 88° |
| 2026-04-23 09:58 | -6.10136 | 106.90845 | 10483 ft | 305 kts | 88° |
| 2026-04-23 09:59 | -6.10080 | 106.93071 | 10757 ft | 332 kts | 88° |
| 2026-04-23 09:59 | -6.10022 | 106.95441 | 11361 ft | 345 kts | 88° |
| 2026-04-23 09:59 | -6.09960 | 106.97876 | 12186 ft | 350 kts | 88° |
| 2026-04-23 09:59 | -6.09898 | 107.00336 | 13060 ft | 354 kts | 88° |
| 2026-04-23 10:00 | -6.09835 | 107.02825 | 13949 ft | 358 kts | 88° |
| 2026-04-23 10:00 | -6.09788 | 107.05300 | 14810 ft | 362 kts | 89° |
| 2026-04-23 10:00 | -6.09787 | 107.07849 | 15686 ft | 367 kts | 90° |
| 2026-04-23 10:00 | -6.09794 | 107.10399 | 16534 ft | 371 kts | 89° |
| 2026-04-23 10:01 | -6.09372 | 107.12956 | 17303 ft | 375 kts | 68° |
| 2026-04-23 10:01 | -6.08018 | 107.15181 | 17953 ft | 374 kts | 47° |
| 2026-04-23 10:01 | -6.05971 | 107.16760 | 18273 ft | 375 kts | 26° |
| 2026-04-23 10:01 | -6.03472 | 107.17561 | 18293 ft | 380 kts | 7° |
| 2026-04-23 10:02 | -6.00839 | 107.17571 | 18315 ft | 378 kts | 356° |
| 2026-04-23 10:02 | -5.98217 | 107.17390 | 18306 ft | 378 kts | 356° |
| 2026-04-23 10:02 | -5.95593 | 107.17221 | 18301 ft | 378 kts | 356° |
| 2026-04-23 10:02 | -5.92968 | 107.17072 | 18304 ft | 378 kts | 357° |
| 2026-04-23 10:03 | -5.90333 | 107.16984 | 18286 ft | 378 kts | 356° |
| 2026-04-23 10:03 | -5.87715 | 107.16766 | 18306 ft | 378 kts | 355° |
| 2026-04-23 10:03 | -5.85090 | 107.16581 | 18308 ft | 378 kts | 357° |
| 2026-04-23 10:03 | -5.82459 | 107.16452 | 18306 ft | 379 kts | 358° |
| 2026-04-23 10:04 | -5.79816 | 107.16326 | 18314 ft | 381 kts | 357° |
| 2026-04-23 10:04 | -5.77149 | 107.16186 | 18847 ft | 386 kts | 357° |
| 2026-04-23 10:04 | -5.74460 | 107.16040 | 19712 ft | 386 kts | 357° |
| 2026-04-23 10:04 | -5.71807 | 107.15895 | 20481 ft | 388 kts | 358° |
| 2026-04-23 10:05 | -5.69096 | 107.15748 | 21130 ft | 392 kts | 356° |
| 2026-04-23 10:05 | -5.66354 | 107.15589 | 21738 ft | 397 kts | 358° |
| 2026-04-23 10:05 | -5.63582 | 107.15434 | 22349 ft | 400 kts | 356° |
| 2026-04-23 10:05 | -5.60788 | 107.15271 | 22929 ft | 404 kts | 358° |
| 2026-04-23 10:06 | -5.57972 | 107.15125 | 23506 ft | 408 kts | 358° |
| 2026-04-23 10:06 | -5.55121 | 107.14978 | 24071 ft | 411 kts | 358° |
| 2026-04-23 10:06 | -5.52254 | 107.14827 | 24610 ft | 414 kts | 358° |
| 2026-04-23 10:06 | -5.49364 | 107.14669 | 25136 ft | 417 kts | 358° |
| 2026-04-23 10:07 | -5.46520 | 107.14578 | 25582 ft | 420 kts | 3° |
| 2026-04-23 10:07 | -5.43627 | 107.15096 | 24790 ft | 421 kts | 14° |
| 2026-04-23 10:07 | -5.40843 | 107.15763 | 25363 ft | 421 kts | 15° |
| 2026-04-23 10:07 | -5.37985 | 107.16462 | 25754 ft | 425 kts | 14° |
| 2026-04-23 10:08 | -5.35091 | 107.17131 | 25807 ft | 426 kts | 13° |
| 2026-04-23 10:08 | -5.32170 | 107.17790 | 26034 ft | 433 kts | 13° |
| 2026-04-23 10:08 | -5.29220 | 107.18449 | 26551 ft | 434 kts | 13° |
| 2026-04-23 10:09 | -5.23356 | 107.19753 | 27598 ft | 436 kts | 13° |
| 2026-04-23 10:09 | -5.20379 | 107.20414 | 28012 ft | 440 kts | 13° |
| 2026-04-23 10:09 | -5.17374 | 107.21082 | 28427 ft | 444 kts | 13° |
| 2026-04-23 10:09 | -5.14356 | 107.21753 | 28844 ft | 447 kts | 13° |
| 2026-04-23 10:10 | -5.11308 | 107.22432 | 29260 ft | 449 kts | 13° |
| 2026-04-23 10:10 | -5.08245 | 107.23113 | 29671 ft | 452 kts | 13° |
| 2026-04-23 10:10 | -5.05170 | 107.23797 | 30027 ft | 454 kts | 13° |
| 2026-04-23 10:10 | -5.02069 | 107.24488 | 30332 ft | 457 kts | 13° |
| 2026-04-23 10:11 | -4.98955 | 107.25181 | 30653 ft | 460 kts | 13° |
| 2026-04-23 10:11 | -4.95831 | 107.25876 | 30982 ft | 462 kts | 13° |
| 2026-04-23 10:11 | -4.92692 | 107.26574 | 31383 ft | 462 kts | 13° |
| 2026-04-23 10:11 | -4.89563 | 107.27269 | 31877 ft | 460 kts | 13° |
| 2026-04-23 10:12 | -4.86438 | 107.27963 | 32374 ft | 458 kts | 13° |
| 2026-04-23 10:12 | -4.83332 | 107.28654 | 32826 ft | 458 kts | 13° |
| 2026-04-23 10:12 | -4.80222 | 107.29345 | 33258 ft | 458 kts | 13° |
| 2026-04-23 10:12 | -4.77110 | 107.30037 | 33719 ft | 457 kts | 13° |
| 2026-04-23 10:13 | -4.74004 | 107.30727 | 34165 ft | 456 kts | 13° |
| 2026-04-23 10:13 | -4.70916 | 107.31413 | 34593 ft | 455 kts | 13° |
| 2026-04-23 10:13 | -4.67859 | 107.32093 | 34964 ft | 455 kts | 13° |
| 2026-04-23 10:13 | -4.64770 | 107.32780 | 35392 ft | 454 kts | 13° |
| 2026-04-23 10:14 | -4.61695 | 107.33465 | 35879 ft | 451 kts | 14° |
| 2026-04-23 10:14 | -4.58656 | 107.34208 | 36357 ft | 448 kts | 14° |
| 2026-04-23 10:14 | -4.55615 | 107.34889 | 36761 ft | 448 kts | 13° |
| 2026-04-23 10:14 | -4.52550 | 107.35558 | 36799 ft | 454 kts | 13° |
| 2026-04-23 10:15 | -4.46368 | 107.36878 | 36811 ft | 452 kts | 13° |
| 2026-04-23 10:15 | -4.40281 | 107.38213 | 36811 ft | 446 kts | 13° |
| 2026-04-23 10:16 | -4.34216 | 107.39562 | 36818 ft | 447 kts | 13° |
| 2026-04-23 10:16 | -4.28135 | 107.40917 | 36815 ft | 448 kts | 13° |
| 2026-04-23 10:17 | -4.22045 | 107.42270 | 36817 ft | 449 kts | 13° |
| 2026-04-23 10:17 | -4.15965 | 107.43618 | 36815 ft | 450 kts | 13° |
| 2026-04-23 10:18 | -4.09834 | 107.44979 | 36814 ft | 451 kts | 13° |
| 2026-04-23 10:18 | -4.03709 | 107.46337 | 36814 ft | 451 kts | 13° |
| 2026-04-23 10:19 | -3.97580 | 107.47696 | 36816 ft | 451 kts | 13° |
| 2026-04-23 10:19 | -3.91451 | 107.49056 | 36817 ft | 451 kts | 13° |
| 2026-04-23 10:20 | -3.85367 | 107.50405 | 36814 ft | 450 kts | 13° |
| 2026-04-23 10:20 | -3.79249 | 107.51762 | 36817 ft | 450 kts | 13° |
| 2026-04-23 10:21 | -3.73143 | 107.53116 | 36814 ft | 449 kts | 13° |
| 2026-04-23 10:21 | -3.67029 | 107.54468 | 36817 ft | 449 kts | 13° |
| 2026-04-23 10:22 | -3.60992 | 107.55799 | 36811 ft | 449 kts | 13° |
| 2026-04-23 10:22 | -3.54880 | 107.57147 | 36816 ft | 449 kts | 13° |
| 2026-04-23 10:23 | -3.48811 | 107.58485 | 36820 ft | 450 kts | 13° |
| 2026-04-23 10:23 | -3.42689 | 107.59836 | 36817 ft | 451 kts | 13° |
| 2026-04-23 10:24 | -3.36566 | 107.61187 | 36818 ft | 451 kts | 13° |
| 2026-04-23 10:24 | -3.30440 | 107.62561 | 36810 ft | 451 kts | 14° |
| 2026-04-23 10:25 | -3.24300 | 107.63925 | 36822 ft | 452 kts | 13° |
| 2026-04-23 10:25 | -3.18150 | 107.65262 | 36813 ft | 452 kts | 13° |
| 2026-04-23 10:26 | -3.12006 | 107.66605 | 36820 ft | 452 kts | 13° |
| 2026-04-23 10:26 | -3.05868 | 107.67958 | 36809 ft | 451 kts | 13° |
| 2026-04-23 10:27 | -2.99774 | 107.69284 | 36823 ft | 450 kts | 13° |
| 2026-04-23 10:27 | -2.93657 | 107.70660 | 36814 ft | 447 kts | 13° |
| 2026-04-23 10:28 | -2.87596 | 107.71998 | 36824 ft | 450 kts | 13° |
| 2026-04-23 10:28 | -2.81477 | 107.73334 | 36820 ft | 450 kts | 13° |
| 2026-04-23 10:29 | -2.75366 | 107.74651 | 36816 ft | 447 kts | 14° |
| 2026-04-23 10:29 | -2.69609 | 107.76886 | 36819 ft | 445 kts | 30° |
| 2026-04-23 10:30 | -2.64358 | 107.80093 | 36826 ft | 445 kts | 33° |
| 2026-04-23 10:30 | -2.59135 | 107.83439 | 36821 ft | 447 kts | 33° |
| 2026-04-23 10:31 | -2.53832 | 107.86748 | 36812 ft | 450 kts | 32° |
| 2026-04-23 10:31 | -2.48477 | 107.90035 | 36815 ft | 451 kts | 32° |
| 2026-04-23 10:32 | -2.43128 | 107.93311 | 36814 ft | 452 kts | 32° |
| 2026-04-23 10:32 | -2.37798 | 107.96579 | 36811 ft | 452 kts | 32° |
| 2026-04-23 10:33 | -2.32435 | 107.99868 | 36813 ft | 451 kts | 32° |
| 2026-04-23 10:33 | -2.27087 | 108.03149 | 36813 ft | 450 kts | 32° |
| 2026-04-23 10:34 | -2.21747 | 108.06423 | 36813 ft | 449 kts | 32° |
| 2026-04-23 10:34 | -2.16426 | 108.09685 | 36814 ft | 448 kts | 32° |
| 2026-04-23 10:35 | -2.11110 | 108.12945 | 36810 ft | 448 kts | 32° |
| 2026-04-23 10:35 | -2.05820 | 108.16189 | 36813 ft | 447 kts | 32° |
| 2026-04-23 10:36 | -2.00540 | 108.19424 | 36815 ft | 447 kts | 32° |
| 2026-04-23 10:36 | -1.95234 | 108.22679 | 36813 ft | 447 kts | 32° |
| 2026-04-23 10:37 | -1.89946 | 108.25923 | 36814 ft | 448 kts | 32° |
| 2026-04-23 10:37 | -1.84629 | 108.29185 | 36814 ft | 447 kts | 32° |
| 2026-04-23 10:38 | -1.79407 | 108.32387 | 36814 ft | 448 kts | 32° |
| 2026-04-23 10:38 | -1.74032 | 108.35683 | 36815 ft | 448 kts | 32° |
| 2026-04-23 10:39 | -1.68706 | 108.38950 | 36814 ft | 449 kts | 32° |
| 2026-04-23 10:39 | -1.63415 | 108.42197 | 36814 ft | 449 kts | 32° |
| 2026-04-23 10:40 | -1.58078 | 108.45470 | 36805 ft | 449 kts | 32° |
| 2026-04-23 10:40 | -1.55416 | 108.47102 | 36545 ft | 449 kts | 32° |
| 2026-04-23 10:40 | -1.52752 | 108.48734 | 36303 ft | 447 kts | 32° |
| 2026-04-23 10:41 | -1.50103 | 108.50357 | 36055 ft | 447 kts | 32° |
| 2026-04-23 10:41 | -1.47457 | 108.51980 | 35426 ft | 446 kts | 32° |
| 2026-04-23 10:41 | -1.44817 | 108.53600 | 34809 ft | 445 kts | 32° |
| 2026-04-23 10:41 | -1.42175 | 108.55220 | 34133 ft | 446 kts | 33° |
| 2026-04-23 10:42 | -1.39524 | 108.56846 | 33384 ft | 448 kts | 33° |
| 2026-04-23 10:42 | -1.36868 | 108.58475 | 32623 ft | 449 kts | 33° |
| 2026-04-23 10:42 | -1.35100 | 108.59558 | 32125 ft | 449 kts | 33° |
| 2026-04-23 10:42 | -1.31569 | 108.61721 | 31114 ft | 449 kts | 33° |
| 2026-04-23 10:43 | -1.28868 | 108.63377 | 30292 ft | 450 kts | 33° |
| 2026-04-23 10:43 | -1.27103 | 108.64460 | 29729 ft | 451 kts | 33° |
| 2026-04-23 10:43 | -1.24430 | 108.66100 | 28926 ft | 448 kts | 33° |
| 2026-04-23 10:43 | -1.20943 | 108.68238 | 28075 ft | 439 kts | 33° |
| 2026-04-23 10:44 | -1.19188 | 108.69313 | 27654 ft | 435 kts | 33° |
| 2026-04-23 10:44 | -1.16622 | 108.70885 | 27046 ft | 429 kts | 32° |
| 2026-04-23 10:44 | -1.13278 | 108.72935 | 26264 ft | 422 kts | 32° |
| 2026-04-23 10:44 | -1.11622 | 108.73950 | 25876 ft | 419 kts | 32° |
| 2026-04-23 10:45 | -1.09147 | 108.75467 | 25279 ft | 415 kts | 32° |
| 2026-04-23 10:45 | -1.06693 | 108.76971 | 24685 ft | 412 kts | 32° |
| 2026-04-23 10:45 | -1.04263 | 108.78462 | 24097 ft | 409 kts | 32° |
| 2026-04-23 10:45 | -1.01847 | 108.79942 | 23511 ft | 406 kts | 32° |
| 2026-04-23 10:46 | -0.99442 | 108.81416 | 22844 ft | 403 kts | 32° |
| 2026-04-23 10:46 | -0.97058 | 108.82878 | 22264 ft | 398 kts | 32° |
| 2026-04-23 10:46 | -0.94707 | 108.84319 | 21662 ft | 394 kts | 32° |
| 2026-04-23 10:46 | -0.92381 | 108.85746 | 21080 ft | 390 kts | 32° |
| 2026-04-23 10:47 | -0.90079 | 108.87156 | 20526 ft | 386 kts | 32° |
| 2026-04-23 10:47 | -0.87798 | 108.88550 | 19975 ft | 383 kts | 31° |
| 2026-04-23 10:47 | -0.85450 | 108.89801 | 19342 ft | 382 kts | 26° |
| 2026-04-23 10:47 | -0.83051 | 108.90922 | 18762 ft | 380 kts | 25° |
| 2026-04-23 10:48 | -0.80645 | 108.92000 | 18196 ft | 378 kts | 25° |
| 2026-04-23 10:48 | -0.78248 | 108.93066 | 17580 ft | 376 kts | 24° |
| 2026-04-23 10:48 | -0.75909 | 108.94115 | 17022 ft | 372 kts | 24° |
| 2026-04-23 10:48 | -0.73567 | 108.95174 | 16465 ft | 368 kts | 25° |
| 2026-04-23 10:49 | -0.71252 | 108.96229 | 15933 ft | 364 kts | 25° |
| 2026-04-23 10:49 | -0.68960 | 108.97279 | 15400 ft | 360 kts | 25° |
| 2026-04-23 10:49 | -0.66693 | 108.98321 | 14860 ft | 358 kts | 25° |
| 2026-04-23 10:49 | -0.64440 | 108.99358 | 14324 ft | 356 kts | 25° |
| 2026-04-23 10:50 | -0.62203 | 109.00389 | 13796 ft | 354 kts | 25° |
| 2026-04-23 10:50 | -0.59968 | 109.01418 | 13215 ft | 352 kts | 25° |
| 2026-04-23 10:50 | -0.57755 | 109.02438 | 12684 ft | 349 kts | 25° |
| 2026-04-23 10:50 | -0.55561 | 109.03449 | 12155 ft | 346 kts | 25° |
| 2026-04-23 10:51 | -0.53399 | 109.04445 | 11761 ft | 339 kts | 25° |
| 2026-04-23 10:51 | -0.51265 | 109.05429 | 11283 ft | 337 kts | 25° |
| 2026-04-23 10:51 | -0.49129 | 109.06414 | 10801 ft | 340 kts | 25° |
| 2026-04-23 10:51 | -0.46991 | 109.07398 | 10607 ft | 335 kts | 25° |
| 2026-04-23 10:52 | -0.44955 | 109.08336 | 10442 ft | 329 kts | 25° |
| 2026-04-23 10:52 | -0.42874 | 109.09296 | 10296 ft | 318 kts | 25° |
| 2026-04-23 10:52 | -0.40901 | 109.10205 | 10155 ft | 306 kts | 25° |
| 2026-04-23 10:52 | -0.39001 | 109.11081 | 10035 ft | 295 kts | 25° |
| 2026-04-23 10:53 | -0.37170 | 109.11924 | 9742 ft | 293 kts | 24° |
| 2026-04-23 10:53 | -0.35330 | 109.12775 | 9406 ft | 290 kts | 25° |
| 2026-04-23 10:53 | -0.33497 | 109.13620 | 9073 ft | 288 kts | 25° |
| 2026-04-23 10:53 | -0.31688 | 109.14453 | 8748 ft | 286 kts | 24° |
| 2026-04-23 10:54 | -0.29889 | 109.15281 | 8457 ft | 281 kts | 24° |
| 2026-04-23 10:54 | -0.28177 | 109.16069 | 8381 ft | 260 kts | 24° |
| 2026-04-23 10:54 | -0.26603 | 109.16794 | 8220 ft | 238 kts | 24° |
| 2026-04-23 10:54 | -0.25156 | 109.17461 | 8079 ft | 220 kts | 24° |
| 2026-04-23 10:55 | -0.23811 | 109.18081 | 7899 ft | 207 kts | 24° |
| 2026-04-23 10:55 | -0.22517 | 109.18677 | 7570 ft | 204 kts | 24° |
| 2026-04-23 10:55 | -0.21237 | 109.19267 | 7224 ft | 202 kts | 24° |
| 2026-04-23 10:55 | -0.19964 | 109.19854 | 6880 ft | 201 kts | 24° |
| 2026-04-23 10:56 | -0.18693 | 109.20440 | 6537 ft | 200 kts | 24° |
| 2026-04-23 10:56 | -0.17428 | 109.21020 | 6214 ft | 199 kts | 24° |
| 2026-04-23 10:56 | -0.16172 | 109.21597 | 5962 ft | 198 kts | 25° |
| 2026-04-23 10:56 | -0.14944 | 109.22166 | 5724 ft | 196 kts | 24° |
| 2026-04-23 10:57 | -0.13712 | 109.22734 | 5498 ft | 194 kts | 24° |
| 2026-04-23 10:57 | -0.12486 | 109.23298 | 5282 ft | 193 kts | 25° |
| 2026-04-23 10:57 | -0.11266 | 109.23859 | 5061 ft | 192 kts | 25° |
| 2026-04-23 10:57 | -0.10058 | 109.24416 | 4836 ft | 190 kts | 25° |
| 2026-04-23 10:58 | -0.08856 | 109.24970 | 4640 ft | 189 kts | 25° |
| 2026-04-23 10:58 | -0.07662 | 109.25520 | 4409 ft | 188 kts | 25° |
| 2026-04-23 10:58 | -0.06472 | 109.26069 | 4188 ft | 187 kts | 25° |
| 2026-04-23 10:58 | -0.05313 | 109.26603 | 4101 ft | 182 kts | 25° |
| 2026-04-23 10:59 | -0.04147 | 109.27138 | 4019 ft | 187 kts | 25° |
| 2026-04-23 10:59 | -0.02950 | 109.27693 | 3941 ft | 190 kts | 25° |
| 2026-04-23 10:59 | -0.01795 | 109.28226 | 3852 ft | 180 kts | 25° |
| 2026-04-23 10:59 | -0.00694 | 109.28731 | 3760 ft | 169 kts | 25° |
| 2026-04-23 11:00 | 0.00381 | 109.29225 | 3697 ft | 170 kts | 26° |
| 2026-04-23 11:00 | 0.01448 | 109.29728 | 3626 ft | 168 kts | 31° |
| 2026-04-23 11:00 | 0.02225 | 109.30546 | 3554 ft | 162 kts | 62° |
| 2026-04-23 11:00 | 0.02532 | 109.31604 | 3488 ft | 159 kts | 89° |
| 2026-04-23 11:01 | 0.02304 | 109.32688 | 3378 ft | 166 kts | 116° |
| 2026-04-23 11:01 | 0.01557 | 109.33560 | 3134 ft | 171 kts | 148° |
| 2026-04-23 11:01 | 0.00468 | 109.34018 | 2887 ft | 170 kts | 156° |
| 2026-04-23 11:01 | -0.00608 | 109.34484 | 2682 ft | 166 kts | 156° |
| 2026-04-23 11:02 | -0.01663 | 109.34925 | 2514 ft | 162 kts | 157° |
| 2026-04-23 11:02 | -0.02706 | 109.35354 | 2360 ft | 162 kts | 158° |
| 2026-04-23 11:02 | -0.03733 | 109.35777 | 2168 ft | 163 kts | 158° |
| 2026-04-23 11:02 | -0.04758 | 109.36194 | 1980 ft | 154 kts | 158° |
| 2026-04-23 11:03 | -0.05704 | 109.36578 | 1786 ft | 141 kts | 159° |
| 2026-04-23 11:03 | -0.06602 | 109.36943 | 1593 ft | 139 kts | 159° |
| 2026-04-23 11:03 | -0.07501 | 109.37310 | 1403 ft | 139 kts | 159° |
| 2026-04-23 11:03 | -0.08378 | 109.37667 | 1242 ft | 139 kts | 159° |
| 2026-04-23 11:04 | -0.09279 | 109.38020 | 1062 ft | 139 kts | 161° |
| 2026-04-23 11:04 | -0.10194 | 109.38403 | 926 ft | 146 kts | 159° |
| 2026-04-23 11:04 | -0.11119 | 109.38803 | 666 ft | 142 kts | 162° |
| 2026-04-23 11:04 | -0.12034 | 109.39134 | 453 ft | 139 kts | 160° |
| 2026-04-23 11:05 | -0.12948 | 109.39518 | 303 ft | 144 kts | 160° |
| 2026-04-23 11:05 | -0.13894 | 109.39903 | 96 ft | 149 kts | 161° |
| 2026-04-23 11:05 | -0.14825 | 109.40280 | 22 ft | 129 kts | 157° |
| 2026-04-23 11:05 | -0.15447 | 109.40534 | 19 ft | 65 kts | 158° |
| 2026-04-23 11:06 | -0.16185 | 109.40835 | 19 ft | 39 kts | 154° |
| 2026-04-23 11:06 | -0.16265 | 109.40899 | 21 ft | 6 kts | 169° |
| 2026-04-23 11:06 | -0.16287 | 109.40869 | 20 ft | 6 kts | 283° |
| 2026-04-23 11:07 | -0.16243 | 109.40847 | 20 ft | 12 kts | 348° |
| 2026-04-23 11:07 | -0.16137 | 109.40816 | 19 ft | 20 kts | 338° |
| 2026-04-23 11:07 | -0.15994 | 109.40756 | 20 ft | 25 kts | 336° |
| 2026-04-23 11:07 | -0.15816 | 109.40685 | 17 ft | 30 kts | 337° |
| 2026-04-23 11:08 | -0.15613 | 109.40603 | 18 ft | 33 kts | 337° |
| 2026-04-23 11:08 | -0.15387 | 109.40509 | 21 ft | 37 kts | 339° |
| 2026-04-23 11:08 | -0.15150 | 109.40413 | 20 ft | 38 kts | 337° |
| 2026-04-23 11:08 | -0.14987 | 109.40347 | 22 ft | 21 kts | 339° |
| 2026-04-23 11:09 | -0.14886 | 109.40315 | 20 ft | 10 kts | 11° |
| 2026-04-23 11:09 | -0.14844 | 109.40365 | 22 ft | 7 kts | 62° |
| 2026-04-23 11:09 | -0.14796 | 109.40368 | 20 ft | 9 kts | 339° |
| 2026-04-23 11:09 | -0.14730 | 109.40340 | 19 ft | 11 kts | 338° |
| 2026-04-23 11:10 | -0.14678 | 109.40319 | 20 ft | 6 kts | 339° |
| 2026-04-23 11:10 | -0.14652 | 109.40327 | 19 ft | 4 kts | 54° |
| 2026-04-23 11:10 | -0.14649 | 109.40346 | 21 ft | 1 kts | 78° |
| 2026-04-23 11:10 | -0.14646 | 109.40356 | 19 ft | 0 kts | 73° |